createdAt,value
2023-11-30T00:00:20.427Z,0.04
2023-11-30T00:02:47.107Z,0.04
2023-11-30T00:05:13.936Z,0.04
2023-11-30T00:07:40.554Z,0.06
2023-11-30T00:10:07.658Z,0.07
2023-11-30T00:12:34.136Z,0.06
2023-11-30T00:15:00.669Z,0.05
2023-11-30T00:17:27.310Z,0.05
2023-11-30T00:19:53.805Z,0.04
2023-11-30T00:22:20.307Z,0.03
2023-11-30T00:24:46.778Z,0.03
2023-11-30T00:27:13.332Z,0.06
2023-11-30T00:29:39.925Z,0.04
2023-11-30T00:32:06.818Z,0.00
2023-11-30T00:34:33.321Z,-0.04
2023-11-30T00:36:59.827Z,-0.05
2023-11-30T00:39:26.454Z,-0.08
2023-11-30T00:41:53.164Z,-0.10
2023-11-30T00:44:22.310Z,-0.10
2023-11-30T00:46:49.115Z,-0.10
2023-11-30T00:49:15.791Z,-0.12
2023-11-30T00:51:42.286Z,-0.13
2023-11-30T00:54:08.939Z,-0.12
2023-11-30T00:56:35.538Z,-0.15
2023-11-30T00:59:02.144Z,-0.18
2023-11-30T01:01:28.712Z,-0.18
2023-11-30T01:03:55.257Z,-0.19
2023-11-30T01:06:21.805Z,-0.17
2023-11-30T01:08:48.463Z,-0.13
2023-11-30T01:11:15.064Z,-0.10
2023-11-30T01:13:41.647Z,-0.07
2023-11-30T01:16:08.706Z,-0.04
2023-11-30T01:18:35.342Z,-0.05
2023-11-30T01:21:02.034Z,-0.05
2023-11-30T01:23:28.591Z,-0.06
2023-11-30T01:25:55.212Z,-0.06
2023-11-30T01:28:21.736Z,-0.07
2023-11-30T01:30:48.229Z,-0.07
2023-11-30T01:33:14.839Z,-0.09
2023-11-30T01:35:41.537Z,-0.11
2023-11-30T01:38:08.113Z,-0.12
2023-11-30T01:40:34.768Z,-0.16
2023-11-30T01:43:01.334Z,-0.20
2023-11-30T01:45:27.841Z,-0.23
2023-11-30T01:47:54.544Z,-0.23
2023-11-30T01:50:21.579Z,-0.26
2023-11-30T01:52:48.278Z,-0.27
2023-11-30T01:55:15.042Z,-0.28
2023-11-30T01:57:42.399Z,-0.27
2023-11-30T02:00:10.934Z,-0.25
2023-11-30T02:02:37.645Z,-0.24
2023-11-30T02:05:04.936Z,-0.23
2023-11-30T02:07:31.460Z,-0.21
2023-11-30T02:09:58.010Z,-0.22
2023-11-30T02:12:24.554Z,-0.22
2023-11-30T02:14:51.073Z,-0.20
2023-11-30T02:17:17.596Z,-0.21
2023-11-30T02:19:44.250Z,-0.22
2023-11-30T02:22:10.780Z,-0.23
2023-11-30T02:24:37.330Z,-0.25
2023-11-30T02:27:04.128Z,-0.27
2023-11-30T02:29:30.657Z,-0.26
2023-11-30T02:31:57.192Z,-0.27
2023-11-30T02:34:23.714Z,-0.26
2023-11-30T02:36:50.219Z,-0.24
2023-11-30T02:39:16.861Z,-0.19
2023-11-30T02:41:43.389Z,-0.18
2023-11-30T02:44:09.989Z,-0.17
2023-11-30T02:46:36.486Z,-0.15
2023-11-30T02:49:03.028Z,-0.13
2023-11-30T02:51:29.796Z,-0.13
2023-11-30T02:53:56.513Z,-0.12
2023-11-30T02:56:23.088Z,-0.11
2023-11-30T02:58:49.618Z,-0.11
2023-11-30T03:01:16.318Z,-0.10
2023-11-30T03:03:43.133Z,-0.09
2023-11-30T03:06:13.716Z,-0.09
2023-11-30T03:08:40.220Z,-0.09
2023-11-30T03:11:06.903Z,-0.11
2023-11-30T03:13:33.432Z,-0.13
2023-11-30T03:16:00.070Z,-0.15
2023-11-30T03:18:26.774Z,-0.19
2023-11-30T03:20:53.533Z,-0.16
2023-11-30T03:23:20.108Z,-0.15
2023-11-30T03:25:47.129Z,-0.14
2023-11-30T03:28:13.889Z,-0.13
2023-11-30T03:30:40.541Z,-0.14
2023-11-30T03:33:07.247Z,-0.17
2023-11-30T03:35:33.893Z,-0.15
2023-11-30T03:38:00.494Z,-0.13
2023-11-30T03:40:27.090Z,-0.12
2023-11-30T03:42:53.580Z,-0.10
2023-11-30T03:45:20.172Z,-0.12
2023-11-30T03:47:46.807Z,-0.13
2023-11-30T03:50:13.381Z,-0.14
2023-11-30T03:52:39.983Z,-0.17
2023-11-30T03:55:06.806Z,-0.17
2023-11-30T03:57:33.495Z,-0.14
2023-11-30T04:00:00.092Z,-0.12
2023-11-30T04:02:26.812Z,-0.10
2023-11-30T04:04:53.383Z,-0.10
2023-11-30T04:07:20.040Z,-0.09
2023-11-30T04:09:47.693Z,-0.09
2023-11-30T04:12:14.260Z,-0.09
2023-11-30T04:14:40.835Z,-0.09
2023-11-30T04:17:08.062Z,-0.09
2023-11-30T04:19:34.563Z,-0.11
2023-11-30T04:22:01.122Z,-0.11
2023-11-30T04:24:27.682Z,-0.10
2023-11-30T04:26:54.495Z,-0.09
2023-11-30T04:29:20.987Z,-0.08
2023-11-30T04:31:47.582Z,-0.09
2023-11-30T04:34:14.273Z,-0.07
2023-11-30T04:36:40.825Z,-0.09
2023-11-30T04:39:07.533Z,-0.08
2023-11-30T04:41:34.092Z,-0.06
2023-11-30T04:44:00.672Z,-0.04
2023-11-30T04:46:27.743Z,-0.07
2023-11-30T04:48:55.707Z,-0.08
2023-11-30T04:51:23.054Z,-0.08
2023-11-30T04:53:50.366Z,-0.07
2023-11-30T04:56:17.014Z,-0.08
2023-11-30T04:58:43.941Z,-0.05
2023-11-30T05:01:10.588Z,-0.02
2023-11-30T05:03:37.490Z,0.01
2023-11-30T05:06:04.394Z,0.02
2023-11-30T05:08:30.935Z,0.02
2023-11-30T05:10:58.643Z,0.05
2023-11-30T05:13:25.128Z,0.05
2023-11-30T05:15:51.731Z,0.04
2023-11-30T05:18:18.392Z,0.06
2023-11-30T05:20:44.913Z,0.07
2023-11-30T05:23:11.412Z,0.07
2023-11-30T05:25:37.983Z,0.08
2023-11-30T05:28:05.794Z,0.10
2023-11-30T05:30:32.335Z,0.08
2023-11-30T05:32:58.994Z,0.06
2023-11-30T05:35:25.599Z,0.06
2023-11-30T05:37:52.045Z,0.07
2023-11-30T05:40:20.305Z,0.09
2023-11-30T05:42:46.866Z,0.09
2023-11-30T05:45:13.412Z,0.09
2023-11-30T05:47:40.063Z,0.08
2023-11-30T05:50:07.217Z,0.10
2023-11-30T05:52:33.853Z,0.09
2023-11-30T05:55:00.470Z,0.11
2023-11-30T05:57:27.443Z,0.13
2023-11-30T05:59:54.072Z,0.14
2023-11-30T06:02:22.559Z,0.15
2023-11-30T06:04:53.574Z,0.16
2023-11-30T06:07:21.476Z,0.18
2023-11-30T06:09:48.489Z,0.17
2023-11-30T06:12:15.129Z,0.18
2023-11-30T06:14:41.834Z,0.19
2023-11-30T06:17:08.366Z,0.19
2023-11-30T06:19:35.041Z,0.16
2023-11-30T06:22:02.359Z,0.17
2023-11-30T06:24:30.875Z,0.19
2023-11-30T06:26:59.248Z,0.20
2023-11-30T06:29:26.197Z,0.21
2023-11-30T06:31:52.883Z,0.22
2023-11-30T06:34:19.589Z,0.23
2023-11-30T06:36:46.200Z,0.21
2023-11-30T06:39:12.799Z,0.22
2023-11-30T06:41:39.333Z,0.21
2023-11-30T06:44:05.849Z,0.22
2023-11-30T06:46:32.369Z,0.23
2023-11-30T06:48:58.873Z,0.21
2023-11-30T06:51:25.523Z,0.19
2023-11-30T06:53:52.053Z,0.18
2023-11-30T06:56:18.603Z,0.20
2023-11-30T06:58:45.261Z,0.20
2023-11-30T07:01:11.918Z,0.20
2023-11-30T07:03:42.751Z,0.19
2023-11-30T07:06:10.684Z,0.21
2023-11-30T07:08:37.407Z,0.20
2023-11-30T07:11:08.436Z,0.19
2023-11-30T07:13:35.165Z,0.22
2023-11-30T07:16:01.919Z,0.24
2023-11-30T07:18:28.680Z,0.26
2023-11-30T07:20:55.286Z,0.27
2023-11-30T07:23:21.848Z,0.22
2023-11-30T07:25:48.585Z,0.21
2023-11-30T07:28:15.206Z,0.20
2023-11-30T07:30:44.799Z,0.17
2023-11-30T07:33:11.918Z,0.14
2023-11-30T07:35:41.736Z,0.11
2023-11-30T07:38:08.936Z,0.12
2023-11-30T07:40:35.642Z,0.14
2023-11-30T07:43:03.497Z,0.15
2023-11-30T07:45:31.198Z,0.15
2023-11-30T07:47:58.695Z,0.12
2023-11-30T07:50:28.310Z,0.10
2023-11-30T07:52:55.021Z,0.07
2023-11-30T07:55:21.806Z,0.04
2023-11-30T07:57:49.745Z,-0.01
2023-11-30T08:00:16.921Z,-0.04
2023-11-30T08:02:44.040Z,-0.04
2023-11-30T08:05:13.275Z,-0.05
2023-11-30T08:07:39.892Z,-0.05
2023-11-30T08:10:07.458Z,-0.08
2023-11-30T08:12:34.195Z,-0.07
2023-11-30T08:15:00.973Z,-0.05
2023-11-30T08:17:27.791Z,-0.02
2023-11-30T08:19:54.372Z,0.01
2023-11-30T08:22:20.917Z,0.07
2023-11-30T08:24:47.532Z,0.12
2023-11-30T08:27:14.142Z,0.14
2023-11-30T08:29:41.254Z,0.17
2023-11-30T08:32:07.883Z,0.13
2023-11-30T08:34:34.347Z,0.06
2023-11-30T08:37:01.212Z,0.03
2023-11-30T08:39:29.738Z,0.00
2023-11-30T08:41:56.869Z,0.00
2023-11-30T08:44:26.014Z,0.00
2023-11-30T08:46:53.839Z,-0.03
2023-11-30T08:49:20.597Z,-0.07
2023-11-30T08:51:47.333Z,-0.08
2023-11-30T08:54:14.107Z,-0.06
2023-11-30T08:56:40.725Z,-0.04
2023-11-30T08:59:07.293Z,-0.03
2023-11-30T09:01:34.174Z,-0.01
2023-11-30T09:04:04.839Z,0.01
2023-11-30T09:06:32.001Z,0.02
2023-11-30T09:08:58.649Z,0.04
2023-11-30T09:11:25.225Z,0.05
2023-11-30T09:13:53.502Z,0.08
2023-11-30T09:16:20.253Z,0.08
2023-11-30T09:18:46.976Z,0.10
2023-11-30T09:21:13.683Z,0.13
2023-11-30T09:23:40.313Z,0.17
2023-11-30T09:26:08.064Z,0.21
2023-11-30T09:28:38.437Z,0.27
2023-11-30T09:31:07.203Z,0.33
2023-11-30T09:33:33.939Z,0.37
2023-11-30T09:36:00.600Z,0.39
2023-11-30T09:38:27.119Z,0.42
2023-11-30T09:40:53.763Z,0.50
2023-11-30T09:43:20.851Z,0.56
2023-11-30T09:45:49.485Z,0.62
2023-11-30T09:48:16.209Z,0.68
2023-11-30T09:50:43.183Z,0.71
2023-11-30T09:53:10.001Z,0.79
2023-11-30T09:55:37.635Z,0.84
2023-11-30T09:58:05.001Z,0.92
2023-11-30T10:00:31.758Z,0.98
2023-11-30T10:03:01.215Z,1.06
2023-11-30T10:05:29.872Z,1.14
2023-11-30T10:08:00.438Z,1.18
2023-11-30T10:10:27.260Z,1.17
2023-11-30T10:12:57.106Z,1.11
2023-11-30T10:15:24.103Z,1.08
2023-11-30T10:17:50.962Z,1.05
2023-11-30T10:20:19.734Z,1.06
2023-11-30T10:22:46.535Z,1.12
2023-11-30T10:25:14.188Z,1.14
2023-11-30T10:27:43.364Z,1.18
2023-11-30T10:30:12.395Z,1.22
2023-11-30T10:32:40.894Z,1.35
2023-11-30T10:35:13.584Z,1.44
2023-11-30T10:37:48.962Z,1.44
2023-11-30T10:40:18.782Z,1.48
2023-11-30T10:42:49.252Z,1.54
2023-11-30T10:45:16.758Z,1.45
2023-11-30T10:47:44.001Z,1.38
2023-11-30T10:50:13.056Z,1.36
2023-11-30T10:52:40.838Z,1.31
2023-11-30T10:55:13.271Z,1.31
2023-11-30T10:57:47.485Z,1.27
2023-11-30T11:00:16.613Z,1.23
2023-11-30T11:02:45.183Z,1.26
2023-11-30T11:05:16.599Z,1.27
2023-11-30T11:07:47.637Z,1.26
2023-11-30T11:10:29.344Z,1.15
2023-11-30T11:13:00.959Z,1.13
2023-11-30T11:15:32.991Z,1.17
2023-11-30T11:18:04.665Z,1.23
2023-11-30T11:20:34.063Z,1.21
2023-11-30T11:23:11.019Z,1.18
2023-11-30T11:25:47.069Z,1.15
2023-11-30T11:28:18.049Z,1.12
2023-11-30T11:30:48.290Z,1.14
2023-11-30T11:33:17.730Z,1.24
2023-11-30T11:35:44.522Z,1.30
2023-11-30T11:38:11.759Z,1.28
2023-11-30T11:40:40.834Z,1.27
2023-11-30T11:43:07.734Z,1.30
2023-11-30T11:45:35.465Z,1.26
2023-11-30T11:48:02.664Z,1.25
2023-11-30T11:50:29.467Z,1.14
2023-11-30T11:53:00.801Z,1.26
2023-11-30T11:55:27.649Z,1.29
2023-11-30T11:57:57.100Z,1.24
2023-11-30T12:00:25.827Z,1.20
2023-11-30T12:02:52.598Z,1.17
2023-11-30T12:05:23.417Z,1.17
2023-11-30T12:07:58.520Z,1.12
2023-11-30T12:10:40.443Z,1.05
2023-11-30T12:13:09.315Z,1.13
2023-11-30T12:15:35.952Z,1.10
2023-11-30T12:18:02.756Z,1.08
2023-11-30T12:20:29.386Z,1.06
2023-11-30T12:22:56.955Z,1.04
2023-11-30T12:25:23.698Z,0.97
2023-11-30T12:27:51.306Z,1.01
2023-11-30T12:30:19.962Z,1.08
2023-11-30T12:32:47.214Z,1.05
2023-11-30T12:35:14.072Z,1.11
2023-11-30T12:37:40.731Z,1.18
2023-11-30T12:40:10.077Z,1.14
2023-11-30T12:42:37.409Z,1.06
2023-11-30T12:45:05.661Z,1.13
2023-11-30T12:47:32.538Z,1.12
2023-11-30T12:49:59.247Z,1.09
2023-11-30T12:52:26.020Z,1.01
2023-11-30T12:54:53.159Z,1.07
2023-11-30T12:57:21.114Z,1.06
2023-11-30T12:59:47.881Z,1.12
2023-11-30T13:02:14.539Z,1.19
2023-11-30T13:04:42.107Z,1.18
2023-11-30T13:07:08.745Z,1.16
2023-11-30T13:09:36.436Z,1.24
2023-11-30T13:12:04.715Z,1.24
2023-11-30T13:14:32.234Z,1.17
2023-11-30T13:16:58.833Z,1.15
2023-11-30T13:19:25.924Z,1.11
2023-11-30T13:21:53.184Z,1.06
2023-11-30T13:24:20.491Z,1.10
2023-11-30T13:26:48.572Z,1.15
2023-11-30T13:29:15.214Z,1.18
2023-11-30T13:31:41.814Z,1.15
2023-11-30T13:34:08.535Z,1.08
2023-11-30T13:36:35.084Z,1.10
2023-11-30T13:39:01.797Z,1.02
2023-11-30T13:41:28.372Z,0.94
2023-11-30T13:43:55.162Z,0.91
2023-11-30T13:46:22.301Z,0.98
2023-11-30T13:48:49.260Z,0.95
2023-11-30T13:51:16.121Z,0.99
2023-11-30T13:53:42.836Z,1.00
2023-11-30T13:56:10.073Z,1.10
2023-11-30T13:58:36.627Z,1.08
2023-11-30T14:01:04.054Z,1.04
2023-11-30T14:03:30.933Z,0.96
2023-11-30T14:05:58.106Z,1.00
2023-11-30T14:08:27.586Z,1.03
2023-11-30T14:10:54.404Z,0.99
2023-11-30T14:13:21.031Z,0.94
2023-11-30T14:15:48.855Z,0.90
2023-11-30T14:18:15.874Z,0.84
2023-11-30T14:20:42.523Z,0.86
2023-11-30T14:23:09.201Z,0.79
2023-11-30T14:25:35.832Z,0.71
2023-11-30T14:28:07.698Z,0.74
2023-11-30T14:30:39.032Z,0.80
2023-11-30T14:33:05.694Z,0.72
2023-11-30T14:35:32.946Z,0.64
2023-11-30T14:38:00.119Z,0.66
2023-11-30T14:40:26.881Z,0.72
2023-11-30T14:42:53.678Z,0.71
2023-11-30T14:45:20.490Z,0.67
2023-11-30T14:47:48.170Z,0.70
2023-11-30T14:50:16.971Z,0.63
2023-11-30T14:52:45.838Z,0.56
2023-11-30T14:55:13.913Z,0.48
2023-11-30T14:57:42.245Z,0.44
2023-11-30T15:00:13.696Z,0.29
2023-11-30T15:02:42.378Z,0.36
2023-11-30T15:05:15.371Z,0.38
2023-11-30T15:07:42.469Z,0.40
2023-11-30T15:10:12.193Z,0.41
2023-11-30T15:12:39.262Z,0.44
2023-11-30T15:15:13.903Z,0.50
2023-11-30T15:17:42.965Z,0.46
2023-11-30T15:20:11.682Z,0.45
2023-11-30T15:22:38.596Z,0.45
2023-11-30T15:25:08.580Z,0.46
2023-11-30T15:27:36.034Z,0.47
2023-11-30T15:30:04.547Z,0.43
2023-11-30T15:32:31.467Z,0.42
2023-11-30T15:34:58.002Z,0.41
2023-11-30T15:37:24.841Z,0.45
2023-11-30T15:39:51.686Z,0.46
2023-11-30T15:42:18.295Z,0.50
2023-11-30T15:44:45.035Z,0.50
2023-11-30T15:47:12.629Z,0.48
2023-11-30T15:49:40.993Z,0.48
2023-11-30T15:52:07.617Z,0.50
2023-11-30T15:54:34.178Z,0.53
2023-11-30T15:57:00.772Z,0.57
2023-11-30T15:59:28.130Z,0.55
2023-11-30T16:01:54.760Z,0.52
2023-11-30T16:04:21.525Z,0.45
2023-11-30T16:06:48.336Z,0.43
2023-11-30T16:09:15.073Z,0.46
2023-11-30T16:11:41.677Z,0.47
2023-11-30T16:14:08.218Z,0.48
2023-11-30T16:16:34.996Z,0.49
2023-11-30T16:19:01.661Z,0.44
2023-11-30T16:21:28.867Z,0.39
2023-11-30T16:23:56.660Z,0.34
2023-11-30T16:26:25.958Z,0.41
2023-11-30T16:28:53.011Z,0.44
2023-11-30T16:31:19.713Z,0.45
2023-11-30T16:33:47.098Z,0.42
2023-11-30T16:36:13.676Z,0.37
2023-11-30T16:38:40.194Z,0.35
2023-11-30T16:41:07.695Z,0.35
2023-11-30T16:43:36.829Z,0.30
2023-11-30T16:46:05.170Z,0.32
2023-11-30T16:48:32.035Z,0.34
2023-11-30T16:50:59.608Z,0.36
2023-11-30T16:53:28.331Z,0.36
2023-11-30T16:55:56.852Z,0.39
2023-11-30T16:58:23.432Z,0.42
2023-11-30T17:00:50.280Z,0.41
2023-11-30T17:03:17.184Z,0.36
2023-11-30T17:05:43.915Z,0.30
2023-11-30T17:08:10.418Z,0.33
2023-11-30T17:10:36.992Z,0.29
2023-11-30T17:13:05.646Z,0.30
2023-11-30T17:15:33.077Z,0.23
2023-11-30T17:17:59.721Z,0.15
2023-11-30T17:20:26.253Z,0.10
2023-11-30T17:22:53.284Z,0.06
2023-11-30T17:25:20.972Z,0.04
2023-11-30T17:27:47.848Z,0.04
2023-11-30T17:30:15.750Z,0.01
2023-11-30T17:32:42.900Z,0.00
2023-11-30T17:35:09.838Z,-0.01
2023-11-30T17:37:36.558Z,0.00
2023-11-30T17:40:03.482Z,0.06
2023-11-30T17:42:30.276Z,0.07
2023-11-30T17:44:56.912Z,0.04
2023-11-30T17:47:23.541Z,-0.04
2023-11-30T17:49:50.073Z,-0.10
2023-11-30T17:52:16.663Z,-0.18
2023-11-30T17:54:43.667Z,-0.13
2023-11-30T17:57:10.211Z,-0.09
2023-11-30T17:59:36.768Z,-0.04
2023-11-30T18:02:03.470Z,-0.04
2023-11-30T18:04:30.047Z,-0.04
2023-11-30T18:06:56.678Z,-0.03
2023-11-30T18:09:26.704Z,-0.03
2023-11-30T18:11:54.132Z,0.00
2023-11-30T18:14:20.609Z,-0.01
2023-11-30T18:16:47.184Z,-0.04
2023-11-30T18:19:13.830Z,-0.02
2023-11-30T18:21:40.427Z,-0.05
2023-11-30T18:24:07.104Z,-0.12
2023-11-30T18:26:33.655Z,-0.27
2023-11-30T18:29:00.158Z,-0.23
2023-11-30T18:31:26.776Z,-0.29
2023-11-30T18:33:53.405Z,-0.25
2023-11-30T18:36:20.163Z,-0.22
2023-11-30T18:38:50.860Z,-0.22
2023-11-30T18:41:22.365Z,-0.30
2023-11-30T18:43:50.077Z,-0.32
2023-11-30T18:46:16.911Z,-0.26
2023-11-30T18:48:44.184Z,-0.28
2023-11-30T18:51:11.143Z,-0.24
2023-11-30T18:53:37.712Z,-0.21
2023-11-30T18:56:05.545Z,-0.25
2023-11-30T18:58:32.331Z,-0.30
2023-11-30T19:00:58.978Z,-0.37
2023-11-30T19:03:25.647Z,-0.38
2023-11-30T19:05:52.452Z,-0.43
2023-11-30T19:08:18.956Z,-0.46
2023-11-30T19:10:45.486Z,-0.37
2023-11-30T19:13:12.112Z,-0.38
2023-11-30T19:15:42.811Z,-0.35
2023-11-30T19:18:09.838Z,-0.31
2023-11-30T19:20:38.462Z,-0.27
2023-11-30T19:23:05.021Z,-0.24
2023-11-30T19:25:31.599Z,-0.26
2023-11-30T19:27:58.246Z,-0.30
2023-11-30T19:30:24.900Z,-0.31
2023-11-30T19:32:52.243Z,-0.29
2023-11-30T19:35:19.795Z,-0.28
2023-11-30T19:37:46.524Z,-0.29
2023-11-30T19:40:13.468Z,-0.32
2023-11-30T19:42:40.136Z,-0.38
2023-11-30T19:45:07.367Z,-0.46
2023-11-30T19:47:34.767Z,-0.55
2023-11-30T19:50:01.499Z,-0.53
2023-11-30T19:52:28.019Z,-0.53
2023-11-30T19:54:54.672Z,-0.60
2023-11-30T19:57:21.344Z,-0.55
2023-11-30T19:59:47.945Z,-0.55
2023-11-30T20:02:14.834Z,-0.53
2023-11-30T20:04:41.498Z,-0.53
2023-11-30T20:07:08.080Z,-0.55
2023-11-30T20:09:34.770Z,-0.65
2023-11-30T20:12:01.329Z,-0.66
2023-11-30T20:14:28.245Z,-0.73
2023-11-30T20:16:54.938Z,-0.81
2023-11-30T20:19:21.485Z,-0.87
2023-11-30T20:21:48.119Z,-0.92
2023-11-30T20:24:14.766Z,-0.99
2023-11-30T20:26:42.782Z,-0.99
2023-11-30T20:29:09.965Z,-0.94
2023-11-30T20:31:36.516Z,-0.87
2023-11-30T20:34:04.114Z,-0.84
2023-11-30T20:36:30.864Z,-0.83
2023-11-30T20:38:57.630Z,-0.83
2023-11-30T20:41:25.418Z,-0.91
2023-11-30T20:43:54.282Z,-0.99
2023-11-30T20:46:21.327Z,-1.02
2023-11-30T20:48:48.244Z,-1.03
2023-11-30T20:51:18.438Z,-1.04
2023-11-30T20:53:45.658Z,-1.01
2023-11-30T20:56:12.379Z,-0.94
2023-11-30T20:58:39.699Z,-0.92
2023-11-30T21:01:06.870Z,-0.92
2023-11-30T21:03:34.239Z,-1.00
2023-11-30T21:06:02.126Z,-0.95
2023-11-30T21:08:30.990Z,-0.85
2023-11-30T21:10:57.517Z,-0.87
2023-11-30T21:13:25.154Z,-0.95
2023-11-30T21:15:52.267Z,-0.96
2023-11-30T21:18:18.917Z,-0.93
2023-11-30T21:20:45.504Z,-0.97
2023-11-30T21:23:12.506Z,-1.10
2023-11-30T21:25:39.919Z,-1.15
2023-11-30T21:28:08.929Z,-1.19
2023-11-30T21:30:35.805Z,-1.16
2023-11-30T21:33:02.528Z,-1.14
2023-11-30T21:35:29.417Z,-1.11
2023-11-30T21:37:55.955Z,-1.05
2023-11-30T21:40:22.510Z,-1.00
2023-11-30T21:42:49.141Z,-1.02
2023-11-30T21:45:15.870Z,-1.03
2023-11-30T21:47:42.754Z,-1.02
2023-11-30T21:50:21.701Z,-0.97
2023-11-30T21:52:49.988Z,-0.99
2023-11-30T21:55:18.596Z,-0.98
2023-11-30T21:57:47.814Z,-0.91
2023-11-30T22:00:15.938Z,-0.89
2023-11-30T22:02:47.196Z,-0.92
2023-11-30T22:05:24.131Z,-0.92
2023-11-30T22:07:57.199Z,-0.86
2023-11-30T22:10:23.895Z,-0.85
2023-11-30T22:12:50.516Z,-0.86
2023-11-30T22:15:17.076Z,-0.87
2023-11-30T22:17:43.874Z,-0.84
2023-11-30T22:20:11.251Z,-0.85
2023-11-30T22:22:37.862Z,-0.90
2023-11-30T22:25:04.698Z,-0.91
2023-11-30T22:27:32.020Z,-0.86
2023-11-30T22:29:58.607Z,-0.86
2023-11-30T22:32:25.203Z,-0.90
2023-11-30T22:34:51.735Z,-0.91
2023-11-30T22:37:20.539Z,-0.93
2023-11-30T22:39:47.013Z,-0.92
2023-11-30T22:42:13.878Z,-0.92
2023-11-30T22:44:40.446Z,-0.92
2023-11-30T22:47:07.024Z,-0.92
2023-11-30T22:49:33.696Z,-0.90
2023-11-30T22:52:00.458Z,-0.86
2023-11-30T22:54:28.630Z,-0.86
2023-11-30T22:56:55.401Z,-0.88
2023-11-30T22:59:21.930Z,-0.86
2023-11-30T23:01:48.703Z,-0.90
2023-11-30T23:04:15.618Z,-0.95
2023-11-30T23:06:42.374Z,-0.98
2023-11-30T23:09:08.993Z,-1.02
2023-11-30T23:11:35.473Z,-0.99
2023-11-30T23:14:02.045Z,-0.98
2023-11-30T23:16:28.768Z,-0.98
2023-11-30T23:18:55.469Z,-0.93
2023-11-30T23:21:22.101Z,-0.97
2023-11-30T23:23:48.713Z,-0.99
2023-11-30T23:26:15.632Z,-1.01
2023-11-30T23:28:42.159Z,-1.00
2023-11-30T23:31:08.861Z,-1.02
2023-11-30T23:33:35.487Z,-1.10
2023-11-30T23:36:02.128Z,-1.14
2023-11-30T23:38:28.911Z,-1.11
2023-11-30T23:40:55.433Z,-1.09
2023-11-30T23:43:22.077Z,-1.07
2023-11-30T23:45:49.256Z,-1.04
2023-11-30T23:48:15.962Z,-1.02
2023-11-30T23:50:42.487Z,-1.02
2023-11-30T23:53:09.020Z,-1.02
2023-11-30T23:55:35.583Z,-1.03
2023-11-30T23:58:03.631Z,-0.99
